createdAt,value
2023-04-27T00:00:16.790Z,62.22
2023-04-27T00:02:45.240Z,62.32
2023-04-27T00:05:13.528Z,62.23
2023-04-27T00:07:41.962Z,62.32
2023-04-27T00:10:11.078Z,62.20
2023-04-27T00:12:39.129Z,62.29
2023-04-27T00:15:08.185Z,62.51
2023-04-27T00:17:37.552Z,62.42
2023-04-27T00:20:12.000Z,62.50
2023-04-27T00:22:40.034Z,63.12
2023-04-27T00:25:08.778Z,62.86
2023-04-27T00:27:36.769Z,63.02
2023-04-27T00:30:05.269Z,63.17
2023-04-27T00:32:33.197Z,63.62
2023-04-27T00:35:02.618Z,63.86
2023-04-27T00:37:30.518Z,63.77
2023-04-27T00:39:58.432Z,63.78
2023-04-27T00:42:26.764Z,64.26
2023-04-27T00:44:54.670Z,64.50
2023-04-27T00:47:22.695Z,64.38
2023-04-27T00:49:51.046Z,64.54
2023-04-27T00:52:20.395Z,64.62
2023-04-27T00:54:51.589Z,64.46
2023-04-27T00:57:19.835Z,64.63
2023-04-27T00:59:48.230Z,65.25
2023-04-27T01:02:16.934Z,64.88
2023-04-27T01:04:45.430Z,65.14
2023-04-27T01:07:13.380Z,65.26
2023-04-27T01:09:42.669Z,65.24
2023-04-27T01:12:10.587Z,65.77
2023-04-27T01:14:38.565Z,65.40
2023-04-27T01:17:07.149Z,65.63
2023-04-27T01:19:36.274Z,65.36
2023-04-27T01:22:04.252Z,65.06
2023-04-27T01:24:36.789Z,65.40
2023-04-27T01:27:05.310Z,65.63
2023-04-27T01:29:33.280Z,65.54
2023-04-27T01:32:01.307Z,66.02
2023-04-27T01:34:29.176Z,66.10
2023-04-27T01:36:57.217Z,65.48
2023-04-27T01:39:25.575Z,66.30
2023-04-27T01:41:56.659Z,65.94
2023-04-27T01:44:26.306Z,66.06
2023-04-27T01:46:54.255Z,66.54
2023-04-27T01:49:22.228Z,66.07
2023-04-27T01:51:51.675Z,66.60
2023-04-27T01:54:19.779Z,66.11
2023-04-27T01:56:49.861Z,67.20
2023-04-27T01:59:19.556Z,66.53
2023-04-27T02:01:48.095Z,66.10
2023-04-27T02:04:16.734Z,66.99
2023-04-27T02:06:44.913Z,67.31
2023-04-27T02:09:13.118Z,66.74
2023-04-27T02:11:41.338Z,66.02
2023-04-27T02:14:09.474Z,66.38
2023-04-27T02:16:39.146Z,65.41
2023-04-27T02:19:09.715Z,66.13
2023-04-27T02:21:38.301Z,65.50
2023-04-27T02:24:06.777Z,65.80
2023-04-27T02:26:34.818Z,66.45
2023-04-27T02:29:03.799Z,65.76
2023-04-27T02:31:32.595Z,66.25
2023-04-27T02:34:02.069Z,65.71
2023-04-27T02:36:30.143Z,64.99
2023-04-27T02:38:58.183Z,66.08
2023-04-27T02:41:28.244Z,66.26
2023-04-27T02:43:56.535Z,65.52
2023-04-27T02:46:25.012Z,65.46
2023-04-27T02:48:53.153Z,65.68
2023-04-27T02:51:22.425Z,65.41
2023-04-27T02:53:50.428Z,65.46
2023-04-27T02:56:18.445Z,65.00
2023-04-27T02:58:48.025Z,64.91
2023-04-27T03:01:17.258Z,64.95
2023-04-27T03:03:47.697Z,64.88
2023-04-27T03:06:16.520Z,64.09
2023-04-27T03:08:46.066Z,64.82
2023-04-27T03:11:14.089Z,65.72
2023-04-27T03:13:42.921Z,65.12
2023-04-27T03:16:12.694Z,65.16
2023-04-27T03:18:41.367Z,64.93
2023-04-27T03:21:10.162Z,65.30
2023-04-27T03:23:38.212Z,65.02
2023-04-27T03:26:11.889Z,65.19
2023-04-27T03:28:42.284Z,65.55
2023-04-27T03:31:12.438Z,65.88
2023-04-27T03:33:44.296Z,65.75
2023-04-27T03:36:12.642Z,65.72
2023-04-27T03:38:43.284Z,65.98
2023-04-27T03:41:12.669Z,65.64
2023-04-27T03:43:41.095Z,65.28
2023-04-27T03:46:09.568Z,66.29
2023-04-27T03:48:37.564Z,66.28
2023-04-27T03:51:06.005Z,66.36
2023-04-27T03:53:35.066Z,65.85
2023-04-27T03:56:04.837Z,66.34
2023-04-27T03:58:34.389Z,67.38
2023-04-27T04:01:02.374Z,67.11
2023-04-27T04:03:30.994Z,66.56
2023-04-27T04:05:59.163Z,67.01
2023-04-27T04:08:27.217Z,66.99
2023-04-27T04:10:55.261Z,67.16
2023-04-27T04:13:23.415Z,67.25
2023-04-27T04:16:02.247Z,67.89
2023-04-27T04:18:30.621Z,67.80
2023-04-27T04:20:58.562Z,66.95
2023-04-27T04:23:27.405Z,67.39
2023-04-27T04:25:56.376Z,67.09
2023-04-27T04:28:24.337Z,66.72
2023-04-27T04:30:53.707Z,67.11
2023-04-27T04:33:21.620Z,66.91
2023-04-27T04:35:49.499Z,67.53
2023-04-27T04:38:17.468Z,67.91
2023-04-27T04:40:46.094Z,67.86
2023-04-27T04:43:14.367Z,67.27
2023-04-27T04:45:45.128Z,67.68
2023-04-27T04:48:18.769Z,67.54
2023-04-27T04:50:46.784Z,66.95
2023-04-27T04:53:14.703Z,66.72
2023-04-27T04:55:46.457Z,66.19
2023-04-27T04:58:14.590Z,65.99
2023-04-27T05:00:42.512Z,65.72
2023-04-27T05:03:10.951Z,65.15
2023-04-27T05:05:41.029Z,64.30
2023-04-27T05:08:08.957Z,64.49
2023-04-27T05:10:37.067Z,64.41
2023-04-27T05:13:07.094Z,64.14
2023-04-27T05:15:35.253Z,64.05
2023-04-27T05:18:03.253Z,64.43
2023-04-27T05:20:31.275Z,63.60
2023-04-27T05:23:00.749Z,63.99
2023-04-27T05:25:31.644Z,63.67
2023-04-27T05:27:59.752Z,63.98
2023-04-27T05:30:28.255Z,63.93
2023-04-27T05:32:56.665Z,64.86
2023-04-27T05:35:24.736Z,64.97
2023-04-27T05:37:52.707Z,64.90
2023-04-27T05:40:22.356Z,65.35
2023-04-27T05:42:50.451Z,65.17
2023-04-27T05:45:18.964Z,65.13
2023-04-27T05:47:47.027Z,65.24
2023-04-27T05:50:15.228Z,64.89
2023-04-27T05:52:43.150Z,65.45
2023-04-27T05:55:11.312Z,65.29
2023-04-27T05:57:41.429Z,65.05
2023-04-27T06:00:10.940Z,65.23
2023-04-27T06:02:39.103Z,65.06
2023-04-27T06:05:08.302Z,64.68
2023-04-27T06:07:37.563Z,65.57
2023-04-27T06:10:06.116Z,64.97
2023-04-27T06:12:34.064Z,64.99
2023-04-27T06:15:08.148Z,64.69
2023-04-27T06:17:36.462Z,64.11
2023-04-27T06:20:06.918Z,63.61
2023-04-27T06:22:35.164Z,63.39
2023-04-27T06:25:03.391Z,63.80
2023-04-27T06:27:31.293Z,62.61
2023-04-27T06:30:00.004Z,62.09
2023-04-27T06:32:29.402Z,60.41
2023-04-27T06:34:57.336Z,61.23
2023-04-27T06:37:25.545Z,61.09
2023-04-27T06:39:53.479Z,61.02
2023-04-27T06:42:21.394Z,60.17
2023-04-27T06:44:49.401Z,60.30
2023-04-27T06:47:17.316Z,60.57
2023-04-27T06:49:47.963Z,59.75
2023-04-27T06:52:17.746Z,58.93
2023-04-27T06:54:45.857Z,58.10
2023-04-27T06:57:13.905Z,50.83
2023-04-27T06:59:41.918Z,46.26
2023-04-27T07:02:09.863Z,41.37
2023-04-27T07:04:38.351Z,41.37
2023-04-27T07:07:07.917Z,36.35
2023-04-27T07:09:35.817Z,35.53
2023-04-27T07:12:04.074Z,36.81
2023-04-27T07:14:33.703Z,37.29
2023-04-27T07:17:01.745Z,34.77
2023-04-27T07:19:29.764Z,34.06
2023-04-27T07:21:58.011Z,32.03
2023-04-27T07:24:27.261Z,31.45
2023-04-27T07:26:57.669Z,30.90
2023-04-27T07:29:28.496Z,33.87
2023-04-27T07:31:56.842Z,32.00
2023-04-27T07:34:25.180Z,30.88
2023-04-27T07:36:55.257Z,31.39
2023-04-27T07:39:23.911Z,33.78
2023-04-27T07:41:53.286Z,36.39
2023-04-27T07:44:21.714Z,36.91
2023-04-27T07:46:50.201Z,38.35
2023-04-27T07:49:18.396Z,39.92
2023-04-27T07:51:46.419Z,38.19
2023-04-27T07:54:14.690Z,34.12
2023-04-27T07:56:43.850Z,34.77
2023-04-27T07:59:15.059Z,36.28
2023-04-27T08:01:43.145Z,38.15
2023-04-27T08:04:12.655Z,39.46
2023-04-27T08:06:41.347Z,40.29
2023-04-27T08:09:10.065Z,39.23
2023-04-27T08:11:37.942Z,36.52
2023-04-27T08:14:06.079Z,33.49
2023-04-27T08:16:35.429Z,31.06
2023-04-27T08:19:03.511Z,32.37
2023-04-27T08:21:31.475Z,29.88
2023-04-27T08:23:59.318Z,30.12
2023-04-27T08:26:27.177Z,30.35
2023-04-27T08:28:56.459Z,32.62
2023-04-27T08:31:24.387Z,33.68
2023-04-27T08:33:53.939Z,35.07
2023-04-27T08:36:25.061Z,37.28
2023-04-27T08:38:53.013Z,37.93
2023-04-27T08:41:22.598Z,39.27
2023-04-27T08:43:51.371Z,39.33
2023-04-27T08:46:21.136Z,37.36
2023-04-27T08:48:51.439Z,36.45
2023-04-27T08:51:21.839Z,34.91
2023-04-27T08:53:51.744Z,33.34
2023-04-27T08:56:20.192Z,33.30
2023-04-27T08:58:48.272Z,32.92
2023-04-27T09:01:16.899Z,32.57
2023-04-27T09:03:46.860Z,31.74
2023-04-27T09:06:15.522Z,32.60
2023-04-27T09:08:47.165Z,34.05
2023-04-27T09:11:16.022Z,34.06
2023-04-27T09:13:46.205Z,34.75
2023-04-27T09:16:15.371Z,35.38
2023-04-27T09:18:45.171Z,35.76
2023-04-27T09:21:24.001Z,35.26
2023-04-27T09:23:53.807Z,32.21
2023-04-27T09:26:23.552Z,31.35
2023-04-27T09:28:52.742Z,30.17
2023-04-27T09:31:21.147Z,29.54
2023-04-27T09:33:56.588Z,28.32
2023-04-27T09:36:28.624Z,27.65
2023-04-27T09:39:01.208Z,27.55
2023-04-27T09:41:29.573Z,28.83
2023-04-27T09:43:58.640Z,31.50
2023-04-27T09:46:29.464Z,33.10
2023-04-27T09:48:58.769Z,34.14
2023-04-27T09:51:28.527Z,34.66
2023-04-27T09:54:01.892Z,33.94
2023-04-27T09:56:42.408Z,32.46
2023-04-27T09:59:34.617Z,32.45
2023-04-27T10:02:17.190Z,33.79
2023-04-27T10:05:11.940Z,33.41
2023-04-27T10:07:41.572Z,33.32
2023-04-27T10:10:18.553Z,31.43
2023-04-27T10:12:57.760Z,31.35
2023-04-27T10:15:30.354Z,32.36
2023-04-27T10:18:06.129Z,33.45
2023-04-27T10:20:36.298Z,34.93
2023-04-27T10:23:04.817Z,34.14
2023-04-27T10:25:41.581Z,32.36
2023-04-27T10:28:09.579Z,31.99
2023-04-27T10:30:39.708Z,31.72
2023-04-27T10:33:09.708Z,31.39
2023-04-27T10:35:39.977Z,31.70
2023-04-27T10:38:09.669Z,32.13
2023-04-27T10:40:39.546Z,32.79
2023-04-27T10:43:12.114Z,34.43
2023-04-27T10:45:40.411Z,34.96
2023-04-27T10:48:08.595Z,35.04
2023-04-27T10:50:37.170Z,35.19
2023-04-27T10:53:07.103Z,34.76
2023-04-27T10:55:36.294Z,34.77
2023-04-27T10:58:05.684Z,35.24
2023-04-27T11:00:36.666Z,35.50
2023-04-27T11:03:17.036Z,35.60
2023-04-27T11:05:47.969Z,35.01
2023-04-27T11:08:18.225Z,34.83
2023-04-27T11:10:49.931Z,35.18
2023-04-27T11:13:24.423Z,35.11
2023-04-27T11:15:55.325Z,34.71
2023-04-27T11:18:25.025Z,34.76
2023-04-27T11:20:54.600Z,35.26
2023-04-27T11:23:27.519Z,36.28
2023-04-27T11:25:55.880Z,36.78
2023-04-27T11:28:26.150Z,36.88
2023-04-27T11:30:58.077Z,36.77
2023-04-27T11:33:26.402Z,37.27
2023-04-27T11:35:54.323Z,37.23
2023-04-27T11:38:22.977Z,36.97
2023-04-27T11:41:01.778Z,37.02
2023-04-27T11:43:33.400Z,36.63
2023-04-27T11:46:04.574Z,36.62
2023-04-27T11:48:32.666Z,37.06
2023-04-27T11:51:01.380Z,36.55
2023-04-27T11:53:34.375Z,37.03
2023-04-27T11:56:05.347Z,36.90
2023-04-27T11:58:37.008Z,37.06
2023-04-27T12:01:05.494Z,37.20
2023-04-27T12:03:33.528Z,36.82
2023-04-27T12:08:32.600Z,36.28
2023-04-27T12:11:00.586Z,36.36
2023-04-27T12:13:28.629Z,36.03
2023-04-27T12:15:59.100Z,35.48
2023-04-27T12:18:28.952Z,35.85
2023-04-27T12:20:59.003Z,36.20
2023-04-27T12:23:31.047Z,35.68
2023-04-27T12:25:58.872Z,35.97
2023-04-27T12:28:26.724Z,35.71
2023-04-27T12:30:55.061Z,35.91
2023-04-27T12:33:24.464Z,36.11
2023-04-27T12:35:52.432Z,35.50
2023-04-27T12:38:20.435Z,36.53
2023-04-27T12:40:48.722Z,36.59
2023-04-27T12:43:16.897Z,37.31
2023-04-27T12:45:44.768Z,37.06
2023-04-27T12:48:12.739Z,37.07
2023-04-27T12:50:42.221Z,37.15
2023-04-27T12:53:10.228Z,37.57
2023-04-27T12:55:38.421Z,37.15
2023-04-27T12:58:06.504Z,36.95
2023-04-27T13:00:35.424Z,37.46
2023-04-27T13:03:04.770Z,36.73
2023-04-27T13:05:32.826Z,37.06
2023-04-27T13:08:02.228Z,36.49
2023-04-27T13:10:30.450Z,36.39
2023-04-27T13:12:59.706Z,36.24
2023-04-27T13:15:28.589Z,36.50
2023-04-27T13:17:58.162Z,37.27
2023-04-27T13:20:26.168Z,37.71
2023-04-27T13:22:54.162Z,38.01
2023-04-27T13:25:23.730Z,38.61
2023-04-27T13:27:51.722Z,40.14
2023-04-27T13:30:19.793Z,40.42
2023-04-27T13:32:48.002Z,42.78
2023-04-27T13:35:15.924Z,43.98
2023-04-27T13:37:43.889Z,44.76
2023-04-27T13:40:12.719Z,47.31
2023-04-27T13:42:42.094Z,48.32
2023-04-27T13:45:11.096Z,46.78
2023-04-27T13:47:39.102Z,47.20
2023-04-27T13:50:08.779Z,47.31
2023-04-27T13:52:37.776Z,46.73
2023-04-27T13:55:06.789Z,45.80
2023-04-27T13:57:34.746Z,45.63
2023-04-27T14:00:07.882Z,45.58
2023-04-27T14:02:36.355Z,45.24
2023-04-27T14:05:05.112Z,44.23
2023-04-27T14:07:34.396Z,43.71
2023-04-27T14:10:02.379Z,43.43
2023-04-27T14:12:31.573Z,42.75
2023-04-27T14:14:59.615Z,42.57
2023-04-27T14:17:28.813Z,41.82
2023-04-27T14:19:56.684Z,41.64
2023-04-27T14:22:27.644Z,41.74
2023-04-27T14:24:56.478Z,41.47
2023-04-27T14:27:24.627Z,41.15
2023-04-27T14:29:52.992Z,40.21
2023-04-27T14:32:21.416Z,39.22
2023-04-27T14:34:50.840Z,40.41
2023-04-27T14:37:19.389Z,39.36
2023-04-27T14:39:47.433Z,39.38
2023-04-27T14:42:15.355Z,39.50
2023-04-27T14:44:43.279Z,39.75
2023-04-27T14:47:11.219Z,38.82
2023-04-27T14:49:39.100Z,38.75
2023-04-27T14:52:08.716Z,39.19
2023-04-27T14:54:38.472Z,39.61
2023-04-27T14:57:06.461Z,39.13
2023-04-27T14:59:35.298Z,40.03
2023-04-27T15:02:03.771Z,39.18
2023-04-27T15:04:31.968Z,39.05
2023-04-27T15:06:59.998Z,39.69
2023-04-27T15:09:29.240Z,39.47
2023-04-27T15:11:57.117Z,39.97
2023-04-27T15:14:25.129Z,40.17
2023-04-27T15:16:53.203Z,39.98
2023-04-27T15:19:21.132Z,40.45
2023-04-27T15:21:50.119Z,40.32
2023-04-27T15:24:17.944Z,39.94
2023-04-27T15:26:48.495Z,40.18
2023-04-27T15:29:16.771Z,41.25
2023-04-27T15:31:45.437Z,41.36
2023-04-27T15:34:13.656Z,41.01
2023-04-27T15:36:41.995Z,41.37
2023-04-27T15:39:10.326Z,41.52
2023-04-27T15:41:38.378Z,41.43
2023-04-27T15:44:07.911Z,41.59
2023-04-27T15:46:36.472Z,41.70
2023-04-27T15:49:04.533Z,42.36
2023-04-27T15:51:32.591Z,42.40
2023-04-27T15:54:00.548Z,42.42
2023-04-27T15:56:30.633Z,42.67
2023-04-27T15:58:59.023Z,42.88
2023-04-27T16:01:28.366Z,42.70
2023-04-27T16:03:56.581Z,43.23
2023-04-27T16:06:30.414Z,43.17
2023-04-27T16:08:58.289Z,42.96
2023-04-27T16:11:26.165Z,43.18
2023-04-27T16:13:54.196Z,43.25
2023-04-27T16:16:22.158Z,43.12
2023-04-27T16:18:51.598Z,44.14
2023-04-27T16:21:19.617Z,43.75
2023-04-27T16:23:47.824Z,43.97
2023-04-27T16:26:15.978Z,43.85
2023-04-27T16:28:45.295Z,43.60
2023-04-27T16:31:13.891Z,43.75
2023-04-27T16:33:41.935Z,44.22
2023-04-27T16:36:12.423Z,43.82
2023-04-27T16:38:40.384Z,44.24
2023-04-27T16:41:08.323Z,43.97
2023-04-27T16:43:36.319Z,44.39
2023-04-27T16:46:04.212Z,44.39
2023-04-27T16:48:32.345Z,44.99
2023-04-27T16:51:01.096Z,45.30
2023-04-27T16:53:30.928Z,45.50
2023-04-27T16:56:01.364Z,46.38
2023-04-27T16:58:29.629Z,46.02
2023-04-27T17:00:58.155Z,46.72
2023-04-27T17:03:26.451Z,46.67
2023-04-27T17:05:54.530Z,46.69
2023-04-27T17:08:22.451Z,47.08
2023-04-27T17:10:51.756Z,47.34
2023-04-27T17:13:19.602Z,47.25
2023-04-27T17:15:48.056Z,47.51
2023-04-27T17:18:15.980Z,48.23
2023-04-27T17:20:43.893Z,48.20
2023-04-27T17:23:11.769Z,48.70
2023-04-27T17:25:39.881Z,48.47
2023-04-27T17:28:09.275Z,48.60
2023-04-27T17:30:37.431Z,49.14
2023-04-27T17:33:07.781Z,49.22
2023-04-27T17:35:35.737Z,49.65
2023-04-27T17:38:03.605Z,49.58
2023-04-27T17:40:32.129Z,49.47
2023-04-27T17:43:00.242Z,50.17
2023-04-27T17:45:29.730Z,50.72
2023-04-27T17:47:57.724Z,51.02
2023-04-27T17:50:26.345Z,51.63
2023-04-27T17:52:54.604Z,51.43
2023-04-27T17:55:23.241Z,51.42
2023-04-27T17:57:51.579Z,51.79
2023-04-27T18:00:19.931Z,51.91
2023-04-27T18:02:50.022Z,52.30
2023-04-27T18:05:18.422Z,52.05
2023-04-27T18:07:47.450Z,51.58
2023-04-27T18:10:15.453Z,52.56
2023-04-27T18:12:43.646Z,52.35
2023-04-27T18:15:11.988Z,52.63
2023-04-27T18:17:39.963Z,53.45
2023-04-27T18:20:10.895Z,52.89
2023-04-27T18:22:40.204Z,53.32
2023-04-27T18:25:09.563Z,53.42
2023-04-27T18:27:38.445Z,53.46
2023-04-27T18:30:08.343Z,53.68
2023-04-27T18:32:36.576Z,53.89
2023-04-27T18:35:05.690Z,54.74
2023-04-27T18:37:35.107Z,54.76
2023-04-27T18:40:04.336Z,54.57
2023-04-27T18:42:32.345Z,55.39
2023-04-27T18:45:01.892Z,55.48
2023-04-27T18:47:29.889Z,55.39
2023-04-27T18:49:57.796Z,55.48
2023-04-27T18:52:26.280Z,55.24
2023-04-27T18:54:56.090Z,55.30
2023-04-27T18:57:28.484Z,56.06
2023-04-27T18:59:56.735Z,56.42
2023-04-27T19:02:25.901Z,56.65
2023-04-27T19:05:11.203Z,57.18
2023-04-27T19:07:40.741Z,57.52
2023-04-27T19:10:11.600Z,57.28
2023-04-27T19:12:39.703Z,57.38
2023-04-27T19:15:08.370Z,57.73
2023-04-27T19:17:38.424Z,57.95
2023-04-27T19:20:07.557Z,57.71
2023-04-27T19:22:36.841Z,58.16
2023-04-27T19:25:05.334Z,58.14
2023-04-27T19:27:34.709Z,58.15
2023-04-27T19:30:04.178Z,58.15
2023-04-27T19:32:32.292Z,58.10
2023-04-27T19:35:00.487Z,58.69
2023-04-27T19:37:29.293Z,58.44
2023-04-27T19:39:57.327Z,58.30
2023-04-27T19:42:26.308Z,59.11
2023-04-27T19:44:55.844Z,59.56
2023-04-27T19:47:24.249Z,59.56
2023-04-27T19:49:52.210Z,59.83
2023-04-27T19:52:20.381Z,59.89
2023-04-27T19:54:52.549Z,60.04
2023-04-27T19:57:20.488Z,59.70
2023-04-27T19:59:48.541Z,59.75
2023-04-27T20:02:18.330Z,60.36
2023-04-27T20:04:49.257Z,60.36
2023-04-27T20:07:17.713Z,60.18
2023-04-27T20:09:46.754Z,60.62
2023-04-27T20:12:34.979Z,60.53
2023-04-27T20:15:03.514Z,60.99
2023-04-27T20:17:32.986Z,61.28
2023-04-27T20:20:01.406Z,61.23
2023-04-27T20:22:29.642Z,61.07
2023-04-27T20:24:59.261Z,60.62
2023-04-27T20:27:27.264Z,59.88
2023-04-27T20:29:55.848Z,60.49
2023-04-27T20:32:23.819Z,60.70
2023-04-27T20:34:53.427Z,60.20
2023-04-27T20:37:23.362Z,60.91
2023-04-27T20:39:52.054Z,60.62
2023-04-27T20:42:20.897Z,60.78
2023-04-27T20:44:49.176Z,60.28
2023-04-27T20:47:17.369Z,60.64
2023-04-27T20:49:45.266Z,60.84
2023-04-27T20:52:14.656Z,61.05
2023-04-27T20:54:42.664Z,61.34
2023-04-27T20:57:13.769Z,61.87
2023-04-27T20:59:42.488Z,61.41
2023-04-27T21:02:11.066Z,61.26
2023-04-27T21:04:39.528Z,61.86
2023-04-27T21:07:07.762Z,62.32
2023-04-27T21:09:38.783Z,62.31
2023-04-27T21:12:07.040Z,62.13
2023-04-27T21:14:35.318Z,61.23
2023-04-27T21:17:03.529Z,62.12
2023-04-27T21:19:31.950Z,61.90
2023-04-27T21:21:59.899Z,61.98
2023-04-27T21:24:27.850Z,61.38
2023-04-27T21:26:57.979Z,61.00
2023-04-27T21:29:25.925Z,60.52
2023-04-27T21:31:56.006Z,61.06
2023-04-27T21:34:24.270Z,61.61
2023-04-27T21:36:52.273Z,62.40
2023-04-27T21:39:20.535Z,62.20
2023-04-27T21:41:48.613Z,62.12
2023-04-27T21:44:18.032Z,61.26
2023-04-27T21:46:46.129Z,61.87
2023-04-27T21:49:14.323Z,61.56
2023-04-27T21:51:42.225Z,61.58
2023-04-27T21:54:10.159Z,62.29
2023-04-27T21:56:38.648Z,61.45
2023-04-27T21:59:06.589Z,61.99
2023-04-27T22:01:37.872Z,61.92
2023-04-27T22:04:06.748Z,61.77
2023-04-27T22:06:34.872Z,61.85
2023-04-27T22:09:02.992Z,61.90
2023-04-27T22:11:31.772Z,61.29
2023-04-27T22:13:59.691Z,61.97
2023-04-27T22:16:30.151Z,61.70
2023-04-27T22:18:59.931Z,62.24
2023-04-27T22:21:28.907Z,62.63
2023-04-27T22:23:57.061Z,62.40
2023-04-27T22:26:25.108Z,62.56
2023-04-27T22:28:53.308Z,61.88
2023-04-27T22:31:21.919Z,62.74
2023-04-27T22:33:49.924Z,62.54
2023-04-27T22:36:19.302Z,62.49
2023-04-27T22:38:47.307Z,62.59
2023-04-27T22:41:15.249Z,62.17
2023-04-27T22:43:43.210Z,63.21
2023-04-27T22:46:11.184Z,62.51
2023-04-27T22:48:39.356Z,62.08
2023-04-27T22:51:09.968Z,61.92
2023-04-27T22:53:39.394Z,61.91
2023-04-27T22:56:08.113Z,61.43
2023-04-27T22:58:36.677Z,61.78
2023-04-27T23:01:05.145Z,62.19
2023-04-27T23:03:33.274Z,62.05
2023-04-27T23:06:14.535Z,62.18
2023-04-27T23:08:45.995Z,62.36
2023-04-27T23:11:15.606Z,62.84
2023-04-27T23:13:44.081Z,62.76
2023-04-27T23:16:12.031Z,62.87
2023-04-27T23:18:40.152Z,62.98
2023-04-27T23:21:08.142Z,63.05
2023-04-27T23:23:36.070Z,62.69
2023-04-27T23:26:12.346Z,62.90
2023-04-27T23:28:40.945Z,63.48
2023-04-27T23:31:08.868Z,63.23
2023-04-27T23:33:37.080Z,63.40
2023-04-27T23:36:05.662Z,64.07
2023-04-27T23:38:33.639Z,63.34
2023-04-27T23:41:01.643Z,63.38
2023-04-27T23:43:31.649Z,63.76
2023-04-27T23:45:59.700Z,63.09
2023-04-27T23:48:27.876Z,63.53
2023-04-27T23:51:00.867Z,63.63
2023-04-27T23:53:29.173Z,63.51
2023-04-27T23:55:57.371Z,63.69
2023-04-27T23:58:26.164Z,64.10
